createdAt,value
2019-03-26T00:01:11.009Z,73.90
2019-03-26T00:04:05.764Z,73.80
2019-03-26T00:06:44.993Z,74.00
2019-03-26T00:09:30.803Z,73.80
2019-03-26T00:12:16.900Z,73.90
2019-03-26T00:15:03.019Z,73.90
2019-03-26T00:17:49.136Z,73.90
2019-03-26T00:20:35.078Z,73.90
2019-03-26T00:23:21.005Z,73.90
2019-03-26T00:26:06.946Z,73.70
2019-03-26T00:28:52.882Z,73.80
2019-03-26T00:31:38.726Z,73.80
2019-03-26T00:34:24.888Z,73.90
2019-03-26T00:37:10.738Z,74.00
2019-03-26T00:39:56.512Z,73.90
2019-03-26T00:42:42.305Z,74.00
2019-03-26T00:45:28.631Z,73.80
2019-03-26T00:48:14.588Z,73.90
2019-03-26T00:51:00.329Z,73.80
2019-03-26T00:53:48.093Z,73.90
2019-03-26T00:56:34.206Z,73.70
2019-03-26T00:59:25.120Z,73.80
2019-03-26T01:02:10.957Z,73.80
2019-03-26T01:04:57.002Z,73.80
2019-03-26T01:07:42.793Z,73.90
2019-03-26T01:10:28.689Z,73.60
2019-03-26T01:13:14.093Z,73.80
2019-03-26T01:16:00.085Z,73.70
2019-03-26T01:18:45.925Z,73.70
2019-03-26T01:21:31.352Z,73.80
2019-03-26T01:24:17.477Z,73.80
2019-03-26T01:27:03.268Z,73.80
2019-03-26T01:29:48.967Z,73.80
2019-03-26T01:32:34.772Z,73.90
2019-03-26T01:35:20.740Z,73.90
2019-03-26T01:38:06.601Z,73.80
2019-03-26T01:40:52.684Z,73.90
2019-03-26T01:43:37.963Z,73.90
2019-03-26T01:46:23.897Z,74.00
2019-03-26T01:49:09.365Z,74.10
2019-03-26T01:51:55.202Z,74.20
2019-03-26T01:54:41.058Z,74.10
2019-03-26T01:57:26.403Z,74.30
2019-03-26T02:00:13.058Z,74.30
2019-03-26T02:03:03.990Z,74.10
2019-03-26T02:05:50.128Z,74.10
2019-03-26T02:08:39.120Z,74.20
2019-03-26T02:11:24.908Z,74.20
2019-03-26T02:14:10.861Z,74.20
2019-03-26T02:16:56.833Z,74.20
2019-03-26T02:19:42.869Z,74.10
2019-03-26T02:22:47.671Z,74.10
2019-03-26T02:25:33.372Z,74.10
2019-03-26T02:28:19.333Z,74.00
2019-03-26T02:31:04.633Z,74.10
2019-03-26T02:33:51.031Z,74.20
2019-03-26T02:36:37.041Z,74.00
2019-03-26T02:39:23.045Z,74.10
2019-03-26T02:42:08.911Z,74.30
2019-03-26T02:44:54.709Z,74.50
2019-03-26T02:47:40.589Z,74.40
2019-03-26T02:50:25.963Z,74.30
2019-03-26T02:53:12.231Z,74.60
2019-03-26T02:55:58.087Z,74.70
2019-03-26T02:58:44.426Z,74.70
2019-03-26T03:01:30.720Z,74.80
2019-03-26T03:04:18.745Z,74.90
2019-03-26T03:07:04.919Z,74.80
2019-03-26T03:09:51.005Z,74.80
2019-03-26T03:12:36.851Z,74.80
2019-03-26T03:15:22.241Z,74.80
2019-03-26T03:18:08.211Z,74.90
2019-03-26T03:20:54.117Z,74.80
2019-03-26T03:23:39.871Z,74.90
2019-03-26T03:26:26.155Z,74.90
2019-03-26T03:29:11.907Z,75.10
2019-03-26T03:31:57.697Z,74.80
2019-03-26T03:34:43.657Z,74.90
2019-03-26T03:37:29.869Z,75.00
2019-03-26T03:40:15.704Z,75.10
2019-03-26T03:43:03.475Z,75.10
2019-03-26T03:45:49.806Z,75.30
2019-03-26T03:48:35.867Z,75.30
2019-03-26T03:51:21.782Z,75.20
2019-03-26T03:54:26.526Z,75.00
2019-03-26T03:57:12.729Z,75.20
2019-03-26T03:59:58.757Z,75.30
2019-03-26T04:02:45.139Z,75.30
2019-03-26T04:05:31.297Z,75.30
2019-03-26T04:08:17.291Z,75.20
2019-03-26T04:11:02.604Z,75.30
2019-03-26T04:13:48.540Z,75.50
2019-03-26T04:16:34.540Z,75.30
2019-03-26T04:19:20.398Z,75.30
2019-03-26T04:22:06.338Z,75.40
2019-03-26T04:24:52.589Z,75.20
2019-03-26T04:27:38.481Z,75.20
2019-03-26T04:30:28.568Z,75.50
2019-03-26T04:33:14.469Z,75.30
2019-03-26T04:36:00.425Z,75.50
2019-03-26T04:38:46.399Z,75.40
2019-03-26T04:41:31.753Z,75.50
2019-03-26T04:44:17.808Z,75.60
2019-03-26T04:47:03.653Z,75.70
2019-03-26T04:49:49.462Z,75.50
2019-03-26T04:52:35.335Z,75.70
2019-03-26T04:55:21.265Z,75.60
2019-03-26T04:58:07.152Z,75.70
2019-03-26T05:00:53.416Z,75.90
2019-03-26T05:03:39.601Z,75.80
2019-03-26T05:06:37.501Z,75.90
2019-03-26T05:09:13.269Z,75.80
2019-03-26T05:11:59.225Z,75.80
2019-03-26T05:14:45.205Z,75.80
2019-03-26T05:17:31.006Z,75.80
2019-03-26T05:20:16.913Z,75.80
2019-03-26T05:23:02.194Z,76.50
2019-03-26T05:25:48.424Z,75.70
2019-03-26T05:28:34.437Z,75.60
2019-03-26T05:31:20.315Z,75.60
2019-03-26T05:34:05.646Z,75.70
2019-03-26T05:36:51.963Z,75.70
2019-03-26T05:39:38.353Z,75.40
2019-03-26T05:42:24.005Z,75.30
2019-03-26T05:45:09.901Z,75.30
2019-03-26T05:47:55.928Z,75.30
2019-03-26T05:50:42.001Z,75.30
2019-03-26T05:53:27.749Z,75.40
2019-03-26T05:56:13.582Z,75.50
2019-03-26T05:59:01.434Z,75.50
2019-03-26T06:01:47.582Z,75.60
2019-03-26T06:04:33.516Z,75.60
2019-03-26T06:07:19.389Z,75.50
2019-03-26T06:10:05.708Z,75.60
2019-03-26T06:12:51.806Z,75.60
2019-03-26T06:15:36.985Z,75.70
2019-03-26T06:18:23.047Z,75.70
2019-03-26T06:21:08.916Z,75.70
2019-03-26T06:23:54.741Z,75.80
2019-03-26T06:26:41.780Z,75.70
2019-03-26T06:29:46.856Z,75.80
2019-03-26T06:32:32.801Z,75.90
2019-03-26T06:35:18.306Z,76.00
2019-03-26T06:38:04.457Z,75.80
2019-03-26T06:40:50.338Z,75.80
2019-03-26T06:43:36.552Z,75.80
2019-03-26T06:46:23.774Z,75.80
2019-03-26T06:49:10.138Z,75.90
2019-03-26T06:52:17.631Z,75.70
2019-03-26T06:55:04.287Z,75.70
2019-03-26T06:57:51.396Z,75.80
2019-03-26T07:00:37.150Z,76.10
2019-03-26T07:03:23.346Z,76.70
2019-03-26T07:06:09.561Z,76.80
2019-03-26T07:08:55.071Z,76.50
2019-03-26T07:11:40.927Z,76.70
2019-03-26T07:14:27.002Z,76.90
2019-03-26T07:17:12.205Z,77.00
2019-03-26T07:19:58.314Z,77.20
2019-03-26T07:22:43.752Z,76.80
2019-03-26T07:25:29.966Z,76.70
2019-03-26T07:28:15.694Z,76.60
2019-03-26T07:31:01.113Z,76.30
2019-03-26T07:33:47.293Z,76.30
2019-03-26T07:36:33.140Z,76.30
2019-03-26T07:39:18.917Z,76.30
2019-03-26T07:42:04.798Z,75.50
2019-03-26T07:44:52.574Z,76.70
2019-03-26T07:47:38.401Z,75.90
2019-03-26T07:50:24.212Z,75.70
2019-03-26T07:53:10.222Z,75.80
2019-03-26T07:55:56.096Z,75.70
2019-03-26T07:58:42.027Z,75.50
2019-03-26T08:01:27.922Z,75.30
2019-03-26T08:04:13.723Z,75.20
2019-03-26T08:06:59.125Z,74.90
2019-03-26T08:09:47.038Z,75.00
2019-03-26T08:12:33.030Z,74.80
2019-03-26T08:15:20.797Z,74.80
2019-03-26T08:18:06.826Z,74.80
2019-03-26T08:20:52.658Z,74.60
2019-03-26T08:23:38.642Z,74.70
2019-03-26T08:26:24.700Z,74.50
2019-03-26T08:29:11.021Z,74.60
2019-03-26T08:31:56.883Z,74.50
2019-03-26T08:34:42.795Z,74.40
2019-03-26T08:37:29.137Z,74.30
2019-03-26T08:40:15.048Z,74.20
2019-03-26T08:43:00.854Z,74.10
2019-03-26T08:45:46.192Z,74.20
2019-03-26T08:48:33.828Z,74.10
2019-03-26T08:51:22.656Z,74.00
2019-03-26T08:54:08.636Z,73.80
2019-03-26T08:56:54.497Z,73.80
2019-03-26T08:59:40.341Z,73.70
2019-03-26T09:02:26.302Z,73.60
2019-03-26T09:05:31.709Z,73.50
2019-03-26T09:08:25.410Z,73.40
2019-03-26T09:11:07.021Z,73.30
2019-03-26T09:13:53.305Z,73.30
2019-03-26T09:16:38.507Z,73.20
2019-03-26T09:19:24.575Z,73.00
2019-03-26T09:22:10.654Z,72.70
2019-03-26T09:24:56.929Z,72.60
2019-03-26T09:27:43.028Z,72.20
2019-03-26T09:30:28.760Z,71.90
2019-03-26T09:33:14.612Z,71.30
2019-03-26T09:36:00.067Z,70.60
2019-03-26T09:38:46.601Z,70.00
2019-03-26T09:41:32.630Z,69.90
2019-03-26T09:44:18.395Z,69.90
2019-03-26T09:47:15.620Z,69.50
2019-03-26T09:49:52.460Z,69.50
2019-03-26T09:52:40.369Z,69.40
2019-03-26T09:55:26.330Z,69.30
2019-03-26T09:58:11.735Z,69.10
2019-03-26T10:00:57.583Z,68.90
2019-03-26T10:03:43.439Z,68.60
2019-03-26T10:06:28.955Z,68.60
2019-03-26T10:09:15.006Z,68.90
2019-03-26T10:12:00.862Z,68.40
2019-03-26T10:14:46.726Z,68.80
2019-03-26T10:17:32.898Z,68.10
2019-03-26T10:20:19.588Z,68.30
2019-03-26T10:23:05.772Z,68.40
2019-03-26T10:25:52.362Z,68.20
2019-03-26T10:28:41.366Z,67.90
2019-03-26T10:31:27.980Z,68.00
2019-03-26T10:34:15.505Z,67.80
2019-03-26T10:37:01.477Z,68.50
2019-03-26T10:39:50.385Z,67.40
2019-03-26T10:42:36.849Z,67.10
2019-03-26T10:45:25.634Z,67.30
2019-03-26T10:48:11.752Z,67.10
2019-03-26T10:50:57.517Z,66.10
2019-03-26T10:53:43.496Z,66.20
2019-03-26T10:56:32.533Z,65.90
2019-03-26T10:59:17.678Z,66.60
2019-03-26T11:02:03.536Z,66.50
2019-03-26T11:04:49.365Z,66.20
2019-03-26T11:07:35.237Z,66.00
2019-03-26T11:10:21.206Z,66.20
2019-03-26T11:13:06.950Z,65.50
2019-03-26T11:15:52.842Z,65.30
2019-03-26T11:18:38.238Z,66.90
2019-03-26T11:21:24.224Z,65.30
2019-03-26T11:24:10.172Z,65.50
2019-03-26T11:26:55.572Z,66.10
2019-03-26T11:29:41.540Z,65.30
2019-03-26T11:32:26.852Z,65.40
2019-03-26T11:35:13.179Z,65.40
2019-03-26T11:37:59.706Z,65.30
2019-03-26T11:40:47.092Z,66.10
2019-03-26T11:43:43.245Z,65.60
2019-03-26T11:46:30.493Z,65.70
2019-03-26T11:49:21.188Z,66.60
2019-03-26T11:52:08.306Z,66.30
2019-03-26T11:54:54.381Z,66.20
2019-03-26T11:57:40.079Z,63.10
2019-03-26T12:00:34.483Z,63.60
2019-03-26T12:03:25.887Z,65.50
2019-03-26T12:06:18.469Z,65.70
2019-03-26T12:09:10.257Z,66.10
2019-03-26T12:11:57.826Z,66.20
2019-03-26T12:14:45.072Z,65.90
2019-03-26T12:17:35.160Z,65.60
2019-03-26T12:20:21.189Z,66.50
2019-03-26T12:23:06.586Z,66.60
2019-03-26T12:25:52.477Z,66.30
2019-03-26T12:28:38.317Z,66.10
2019-03-26T12:31:24.149Z,66.50
2019-03-26T12:34:09.616Z,66.10
2019-03-26T12:36:55.657Z,66.10
2019-03-26T12:39:44.132Z,66.10
2019-03-26T12:42:29.450Z,65.80
2019-03-26T12:45:15.372Z,65.90
2019-03-26T12:48:02.688Z,65.80
2019-03-26T12:50:48.812Z,66.10
2019-03-26T12:53:34.738Z,65.40
2019-03-26T12:56:20.646Z,65.20
2019-03-26T12:59:06.482Z,64.80
2019-03-26T13:01:52.233Z,65.50
2019-03-26T13:04:37.583Z,65.20
2019-03-26T13:07:24.461Z,64.20
2019-03-26T13:10:14.182Z,64.80
2019-03-26T13:12:58.468Z,64.70
2019-03-26T13:15:45.499Z,65.30
2019-03-26T13:18:31.239Z,65.20
2019-03-26T13:21:16.610Z,65.00
2019-03-26T13:24:02.654Z,65.10
2019-03-26T13:26:49.141Z,65.50
2019-03-26T13:29:35.523Z,65.50
2019-03-26T13:32:21.333Z,65.70
2019-03-26T13:35:07.468Z,59.90
2019-03-26T13:37:53.894Z,62.10
2019-03-26T13:40:40.098Z,64.00
2019-03-26T13:43:25.388Z,64.50
2019-03-26T13:46:11.249Z,63.90
2019-03-26T13:48:57.204Z,64.40
2019-03-26T13:51:43.033Z,64.80
2019-03-26T13:54:31.741Z,64.70
2019-03-26T13:57:17.538Z,64.70
2019-03-26T14:00:03.732Z,64.40
2019-03-26T14:02:49.872Z,63.80
2019-03-26T14:05:35.837Z,64.10
2019-03-26T14:08:21.667Z,64.20
2019-03-26T14:11:07.641Z,64.10
2019-03-26T14:13:53.117Z,64.30
2019-03-26T14:16:39.063Z,63.60
2019-03-26T14:19:24.995Z,64.50
2019-03-26T14:22:10.786Z,64.50
2019-03-26T14:24:56.590Z,65.60
2019-03-26T14:27:42.135Z,64.90
2019-03-26T14:30:47.112Z,65.20
2019-03-26T14:33:33.372Z,65.20
2019-03-26T14:36:18.615Z,65.60
2019-03-26T14:39:06.153Z,65.80
2019-03-26T14:41:52.426Z,65.20
2019-03-26T14:44:38.002Z,65.30
2019-03-26T14:47:24.097Z,64.90
2019-03-26T14:50:10.409Z,65.30
2019-03-26T14:52:56.462Z,65.50
2019-03-26T14:55:42.591Z,64.90
2019-03-26T14:58:28.419Z,65.30
2019-03-26T15:01:14.250Z,65.40
2019-03-26T15:04:00.234Z,65.20
2019-03-26T15:06:45.661Z,64.90
2019-03-26T15:09:31.628Z,65.00
2019-03-26T15:12:17.524Z,65.10
2019-03-26T15:15:04.105Z,65.20
2019-03-26T15:17:50.493Z,65.50
2019-03-26T15:20:37.486Z,65.40
2019-03-26T15:23:23.518Z,65.20
2019-03-26T15:26:10.032Z,65.60
2019-03-26T15:28:55.637Z,65.60
2019-03-26T15:31:42.077Z,65.40
2019-03-26T15:34:36.154Z,65.60
2019-03-26T15:37:17.354Z,65.60
2019-03-26T15:40:04.326Z,65.70
2019-03-26T15:42:50.116Z,66.40
2019-03-26T15:45:36.109Z,66.80
2019-03-26T15:48:21.949Z,66.30
2019-03-26T15:51:07.776Z,65.80
2019-03-26T15:53:53.125Z,66.80
2019-03-26T15:56:39.216Z,65.70
2019-03-26T15:59:44.560Z,66.00
2019-03-26T16:02:30.482Z,66.10
2019-03-26T16:05:16.265Z,66.50
2019-03-26T16:08:01.637Z,66.00
2019-03-26T16:10:47.802Z,67.10
2019-03-26T16:13:35.780Z,67.00
2019-03-26T16:16:21.447Z,66.80
2019-03-26T16:19:07.293Z,67.30
2019-03-26T16:21:53.305Z,67.40
2019-03-26T16:24:39.129Z,66.90
2019-03-26T16:27:25.077Z,67.20
2019-03-26T16:30:10.376Z,67.50
2019-03-26T16:32:56.292Z,67.60
2019-03-26T16:35:42.187Z,67.70
2019-03-26T16:38:27.945Z,68.20
2019-03-26T16:41:13.849Z,68.30
2019-03-26T16:43:59.681Z,69.10
2019-03-26T16:46:45.569Z,68.50
2019-03-26T16:49:31.842Z,68.00
2019-03-26T16:52:17.992Z,68.20
2019-03-26T16:55:22.560Z,69.00
2019-03-26T16:58:08.651Z,68.40
2019-03-26T17:00:54.400Z,69.60
2019-03-26T17:03:39.835Z,69.50
2019-03-26T17:06:25.937Z,69.10
2019-03-26T17:09:12.131Z,69.70
2019-03-26T17:12:03.474Z,69.50
2019-03-26T17:14:46.258Z,70.00
2019-03-26T17:17:33.372Z,69.90
2019-03-26T17:20:19.306Z,69.40
2019-03-26T17:23:05.166Z,69.20
2019-03-26T17:25:51.276Z,69.10
2019-03-26T17:28:37.269Z,69.80
2019-03-26T17:31:23.449Z,70.50
2019-03-26T17:34:09.531Z,70.70
2019-03-26T17:36:55.499Z,70.50
2019-03-26T17:39:41.495Z,71.30
2019-03-26T17:42:27.297Z,70.60
2019-03-26T17:45:13.257Z,71.10
2019-03-26T17:47:58.532Z,71.70
2019-03-26T17:50:44.589Z,71.20
2019-03-26T17:53:30.786Z,71.30
2019-03-26T17:56:16.966Z,70.90
2019-03-26T17:59:02.738Z,71.40
2019-03-26T18:01:48.710Z,71.50
2019-03-26T18:04:34.012Z,71.20
2019-03-26T18:07:20.021Z,71.10
2019-03-26T18:10:05.977Z,71.30
2019-03-26T18:12:51.874Z,71.30
2019-03-26T18:15:38.600Z,71.10
2019-03-26T18:18:24.692Z,71.20
2019-03-26T18:21:10.593Z,71.20
2019-03-26T18:23:56.435Z,71.10
2019-03-26T18:26:42.599Z,71.20
2019-03-26T18:29:28.642Z,71.30
2019-03-26T18:32:14.535Z,71.30
2019-03-26T18:35:00.437Z,71.50
2019-03-26T18:37:46.235Z,71.60
2019-03-26T18:40:31.557Z,71.70
2019-03-26T18:43:17.521Z,71.70
2019-03-26T18:46:02.934Z,71.80
2019-03-26T18:48:48.970Z,71.80
2019-03-26T18:51:34.649Z,71.70
2019-03-26T18:54:20.904Z,71.90
2019-03-26T18:57:06.202Z,72.00
2019-03-26T18:59:52.436Z,72.00
2019-03-26T19:02:38.161Z,72.10
2019-03-26T19:05:24.220Z,72.20
2019-03-26T19:08:09.957Z,72.20
2019-03-26T19:10:56.217Z,72.40
2019-03-26T19:13:42.281Z,72.40
2019-03-26T19:16:27.595Z,72.40
2019-03-26T19:19:13.468Z,72.50
2019-03-26T19:21:59.282Z,72.60
2019-03-26T19:24:45.051Z,72.70
2019-03-26T19:27:33.516Z,72.70
2019-03-26T19:30:19.624Z,72.80
2019-03-26T19:33:05.641Z,72.90
2019-03-26T19:35:51.444Z,72.90
2019-03-26T19:38:36.748Z,73.00
2019-03-26T19:41:22.688Z,73.00
2019-03-26T19:44:08.640Z,73.10
2019-03-26T19:46:54.410Z,73.10
2019-03-26T19:49:40.276Z,73.10
2019-03-26T19:52:25.829Z,73.20
2019-03-26T19:55:11.786Z,73.20
2019-03-26T19:57:57.781Z,73.40
2019-03-26T20:00:43.625Z,74.10
2019-03-26T20:03:32.579Z,73.40
2019-03-26T20:06:18.510Z,73.50
2019-03-26T20:09:05.449Z,73.50
2019-03-26T20:11:51.364Z,73.60
2019-03-26T20:14:37.269Z,73.60
2019-03-26T20:17:22.679Z,73.60
2019-03-26T20:20:08.744Z,73.80
2019-03-26T20:22:54.000Z,73.60
2019-03-26T20:25:39.995Z,73.70
2019-03-26T20:28:26.866Z,73.70
2019-03-26T20:31:13.454Z,73.70
2019-03-26T20:33:59.382Z,73.80
2019-03-26T20:36:45.234Z,73.90
2019-03-26T20:39:31.142Z,73.90
2019-03-26T20:42:16.946Z,73.90
2019-03-26T20:45:03.382Z,74.00
2019-03-26T20:47:49.318Z,74.00
2019-03-26T20:50:35.187Z,74.10
2019-03-26T20:53:20.590Z,74.10
2019-03-26T20:56:06.749Z,74.10
2019-03-26T20:58:53.102Z,74.00
2019-03-26T21:01:38.425Z,74.10
2019-03-26T21:04:24.516Z,74.30
2019-03-26T21:07:11.781Z,74.10
2019-03-26T21:09:57.616Z,74.20
2019-03-26T21:12:43.469Z,74.10
2019-03-26T21:15:29.025Z,74.00
2019-03-26T21:18:14.998Z,74.20
2019-03-26T21:21:00.866Z,74.10
2019-03-26T21:23:48.377Z,74.20
2019-03-26T21:26:35.424Z,74.20
2019-03-26T21:29:23.191Z,74.10
2019-03-26T21:32:15.581Z,74.10
2019-03-26T21:35:00.363Z,74.20
2019-03-26T21:37:46.559Z,74.20
2019-03-26T21:40:32.590Z,74.30
2019-03-26T21:43:21.032Z,74.30
2019-03-26T21:46:07.540Z,74.00
2019-03-26T21:48:53.930Z,74.10
2019-03-26T21:51:40.255Z,74.10
2019-03-26T21:54:28.485Z,74.10
2019-03-26T21:57:14.424Z,74.10
2019-03-26T21:59:59.807Z,74.00
2019-03-26T22:02:45.718Z,74.10
2019-03-26T22:05:31.083Z,74.20
2019-03-26T22:08:17.044Z,74.10
2019-03-26T22:11:02.904Z,74.00
2019-03-26T22:13:48.336Z,74.30
2019-03-26T22:16:34.200Z,74.10
2019-03-26T22:19:28.540Z,74.10
2019-03-26T22:22:08.236Z,74.10
2019-03-26T22:24:54.031Z,74.30
2019-03-26T22:27:41.214Z,74.10
2019-03-26T22:30:27.456Z,74.20
2019-03-26T22:33:13.256Z,74.40
2019-03-26T22:35:59.190Z,74.30
2019-03-26T22:38:45.284Z,74.20
2019-03-26T22:41:32.598Z,74.10
2019-03-26T22:44:30.856Z,74.30
2019-03-26T22:47:06.896Z,74.30
2019-03-26T22:49:57.179Z,74.40
2019-03-26T22:52:41.776Z,74.30
2019-03-26T22:55:27.960Z,74.80
2019-03-26T22:58:13.814Z,74.30
2019-03-26T23:00:59.784Z,74.40
2019-03-26T23:03:45.608Z,74.50
2019-03-26T23:06:31.549Z,74.50
2019-03-26T23:09:16.964Z,74.50
2019-03-26T23:12:02.869Z,74.40
2019-03-26T23:14:51.064Z,74.40
2019-03-26T23:17:36.907Z,74.40
2019-03-26T23:20:22.708Z,74.30
2019-03-26T23:23:08.704Z,74.40
2019-03-26T23:25:53.980Z,74.30
2019-03-26T23:28:39.884Z,74.30
2019-03-26T23:31:25.891Z,74.30
2019-03-26T23:34:11.673Z,74.30
2019-03-26T23:36:57.446Z,74.50
2019-03-26T23:39:42.907Z,74.50
2019-03-26T23:42:28.868Z,74.50
2019-03-26T23:45:14.191Z,74.30
2019-03-26T23:48:00.096Z,74.40
2019-03-26T23:50:46.017Z,74.40
2019-03-26T23:53:31.991Z,74.40
2019-03-26T23:56:17.797Z,74.50
2019-03-26T23:59:03.677Z,74.50
